createdAt,value
2023-11-01T00:01:41.155Z,2.20
2023-11-01T00:04:13.124Z,2.00
2023-11-01T00:06:48.798Z,2.10
2023-11-01T00:09:22.013Z,4.60
2023-11-01T00:11:53.021Z,2.10
2023-11-01T00:14:22.019Z,1.60
2023-11-01T00:16:55.343Z,2.40
2023-11-01T00:19:24.935Z,2.40
2023-11-01T00:22:01.849Z,2.00
2023-11-01T00:24:36.316Z,2.10
2023-11-01T00:27:10.097Z,2.30
2023-11-01T00:29:44.088Z,1.40
2023-11-01T00:32:17.977Z,2.30
2023-11-01T00:34:46.604Z,2.50
2023-11-01T00:37:44.968Z,2.50
2023-11-01T00:40:16.843Z,2.50
2023-11-01T00:42:47.181Z,2.50
2023-11-01T00:45:21.586Z,1.50
2023-11-01T00:47:52.623Z,1.80
2023-11-01T00:50:23.805Z,2.30
2023-11-01T00:52:54.707Z,2.70
2023-11-01T00:55:31.165Z,1.30
2023-11-01T00:58:00.122Z,2.50
2023-11-01T01:00:33.462Z,1.80
2023-11-01T01:03:03.687Z,1.60
2023-11-01T01:05:32.874Z,2.20
2023-11-01T01:08:04.557Z,1.50
2023-11-01T01:10:33.169Z,3.10
2023-11-01T01:13:04.667Z,0.90
2023-11-01T01:15:33.204Z,3.40
2023-11-01T01:18:09.175Z,1.00
2023-11-01T01:20:44.101Z,3.10
2023-11-01T01:23:14.238Z,1.90
2023-11-01T01:25:42.817Z,1.40
2023-11-01T01:28:33.651Z,1.40
2023-11-01T01:31:02.641Z,1.40
2023-11-01T01:33:31.315Z,1.10
2023-11-01T01:36:00.819Z,2.60
2023-11-01T01:38:29.637Z,1.40
2023-11-01T01:41:00.475Z,1.80
2023-11-01T01:43:29.383Z,0.70
2023-11-01T01:46:09.869Z,1.30
2023-11-01T01:48:45.866Z,1.30
2023-11-01T01:51:15.431Z,0.60
2023-11-01T01:53:48.472Z,1.70
2023-11-01T01:56:21.119Z,1.90
2023-11-01T01:58:52.434Z,1.50
2023-11-01T02:01:35.515Z,1.00
2023-11-01T02:04:19.304Z,1.90
2023-11-01T02:06:50.215Z,0.40
2023-11-01T02:09:24.951Z,2.60
2023-11-01T02:11:53.765Z,2.70
2023-11-01T02:14:25.680Z,1.10
2023-11-01T02:16:57.409Z,1.50
2023-11-01T02:19:40.873Z,1.30
2023-11-01T02:22:14.792Z,4.20
2023-11-01T02:24:55.317Z,1.00
2023-11-01T02:27:30.071Z,1.10
2023-11-01T02:30:37.027Z,0.80
2023-11-01T02:33:14.391Z,1.30
2023-11-01T02:35:43.321Z,0.40
2023-11-01T02:38:12.815Z,1.50
2023-11-01T02:40:41.416Z,2.20
2023-11-01T02:43:15.373Z,2.30
2023-11-01T02:45:47.121Z,2.20
2023-11-01T02:48:28.890Z,1.40
2023-11-01T02:51:24.529Z,2.10
2023-11-01T02:53:58.885Z,2.00
2023-11-01T02:56:27.840Z,0.60
2023-11-01T02:59:09.699Z,2.10
2023-11-01T03:02:09.307Z,1.10
2023-11-01T03:04:38.500Z,2.90
2023-11-01T03:07:09.681Z,1.70
2023-11-01T03:09:40.759Z,1.30
2023-11-01T03:12:11.897Z,1.20
2023-11-01T03:14:46.031Z,2.10
2023-11-01T03:17:17.233Z,1.30
2023-11-01T03:19:53.692Z,2.10
2023-11-01T03:22:30.435Z,2.30
2023-11-01T03:25:03.972Z,3.40
2023-11-01T03:27:35.297Z,2.20
2023-11-01T03:30:30.631Z,2.40
2023-11-01T03:33:13.086Z,0.60
2023-11-01T03:35:49.644Z,1.00
2023-11-01T03:38:18.538Z,2.10
2023-11-01T03:40:50.315Z,1.50
2023-11-01T03:43:27.601Z,3.00
2023-11-01T03:45:58.555Z,2.30
2023-11-01T03:48:30.431Z,1.40
2023-11-01T03:51:12.871Z,1.60
2023-11-01T03:53:43.969Z,1.30
2023-11-01T03:56:15.342Z,1.90
2023-11-01T03:58:44.264Z,1.90
2023-11-01T04:01:18.808Z,1.20
2023-11-01T04:03:49.701Z,2.90
2023-11-01T04:06:24.653Z,3.70
2023-11-01T04:08:58.833Z,2.40
2023-11-01T04:11:30.205Z,1.20
2023-11-01T04:14:14.227Z,2.40
2023-11-01T04:16:48.324Z,2.50
2023-11-01T04:19:18.630Z,1.70
2023-11-01T04:21:54.368Z,2.20
2023-11-01T04:24:29.911Z,4.10
2023-11-01T04:27:14.918Z,1.40
2023-11-01T04:29:45.993Z,1.40
2023-11-01T04:32:20.037Z,0.40
2023-11-01T04:34:55.906Z,3.30
2023-11-01T04:37:25.313Z,1.80
2023-11-01T04:39:54.005Z,3.80
2023-11-01T04:42:22.643Z,1.70
2023-11-01T04:44:51.159Z,2.50
2023-11-01T04:47:22.234Z,3.20
2023-11-01T04:49:56.518Z,3.10
2023-11-01T04:52:28.526Z,0.80
2023-11-01T04:55:02.013Z,2.90
2023-11-01T04:57:33.819Z,3.10
2023-11-01T05:00:09.990Z,4.70
2023-11-01T05:02:41.196Z,0.70
2023-11-01T05:05:12.656Z,1.00
2023-11-01T05:07:44.110Z,4.50
2023-11-01T05:10:17.925Z,2.50
2023-11-01T05:12:51.452Z,1.30
2023-11-01T05:15:20.059Z,4.70
2023-11-01T05:17:52.575Z,1.40
2023-11-01T05:20:23.594Z,3.40
2023-11-01T05:22:52.845Z,2.60
2023-11-01T05:25:21.593Z,2.90
2023-11-01T05:28:02.404Z,2.60
2023-11-01T05:30:37.426Z,4.30
2023-11-01T05:33:30.117Z,6.10
2023-11-01T05:36:18.845Z,2.70
2023-11-01T05:39:12.478Z,4.10
2023-11-01T05:42:13.529Z,1.50
2023-11-01T05:45:24.243Z,1.00
2023-11-01T05:48:21.016Z,2.30
2023-11-01T05:51:27.932Z,1.30
2023-11-01T05:54:24.810Z,3.20
2023-11-01T05:57:29.239Z,3.40
2023-11-01T06:00:30.236Z,4.80
2023-11-01T06:03:57.397Z,6.10
2023-11-01T06:07:11.641Z,5.40
2023-11-01T06:10:04.126Z,3.60
2023-11-01T06:13:02.861Z,5.60
2023-11-01T06:15:59.422Z,3.30
2023-11-01T06:19:06.937Z,3.90
2023-11-01T06:22:20.650Z,1.50
2023-11-01T06:25:23.303Z,3.10
2023-11-01T06:28:21.360Z,2.00
2023-11-01T06:31:21.756Z,2.40
2023-11-01T06:34:39.006Z,4.00
2023-11-01T06:37:35.008Z,1.70
2023-11-01T06:40:20.169Z,4.50
2023-11-01T06:43:22.474Z,3.10
2023-11-01T06:46:49.936Z,1.30
2023-11-01T06:49:39.391Z,1.50
2023-11-01T06:52:35.436Z,1.80
2023-11-01T06:55:42.076Z,2.40
2023-11-01T06:58:31.376Z,2.00
2023-11-01T07:01:20.422Z,3.20
2023-11-01T07:04:15.640Z,2.30
2023-11-01T07:07:23.532Z,5.80
2023-11-01T07:10:20.043Z,4.50
2023-11-01T07:13:04.620Z,3.30
2023-11-01T07:16:17.231Z,2.80
2023-11-01T07:19:07.660Z,1.80
2023-11-01T07:22:01.019Z,2.80
2023-11-01T07:24:58.503Z,2.40
2023-11-01T07:27:52.341Z,1.30
2023-11-01T07:30:48.131Z,2.50
2023-11-01T07:35:57.890Z,3.30
2023-11-01T07:38:54.937Z,1.60
2023-11-01T07:41:28.908Z,1.10
2023-11-01T07:44:57.026Z,2.70
2023-11-01T07:48:21.093Z,2.70
2023-11-01T07:51:39.864Z,1.00
2023-11-01T07:54:40.229Z,2.10
2023-11-01T07:57:48.513Z,2.50
2023-11-01T08:01:07.004Z,0.70
2023-11-01T08:04:11.495Z,1.90
2023-11-01T08:07:21.680Z,2.60
2023-11-01T08:10:21.295Z,7.00
2023-11-01T08:13:19.866Z,2.90
2023-11-01T08:16:32.066Z,3.70
2023-11-01T08:19:40.574Z,3.80
2023-11-01T08:22:47.200Z,2.20
2023-11-01T08:25:56.493Z,2.70
2023-11-01T08:29:16.345Z,4.10
2023-11-01T08:32:29.588Z,7.00
2023-11-01T08:36:10.536Z,33.40
2023-11-01T08:39:19.099Z,4.50
2023-11-01T08:42:30.213Z,2.10
2023-11-01T08:45:55.840Z,8.80
2023-11-01T08:48:45.980Z,5.30
2023-11-01T08:51:43.985Z,6.10
2023-11-01T08:54:47.337Z,4.00
2023-11-01T08:58:13.457Z,4.40
2023-11-01T09:01:36.809Z,2.50
2023-11-01T09:04:36.961Z,6.80
2023-11-01T09:07:49.464Z,5.80
2023-11-01T09:11:00.984Z,5.60
2023-11-01T09:14:01.449Z,5.70
2023-11-01T09:16:58.955Z,3.60
2023-11-01T09:20:05.716Z,6.90
2023-11-01T09:23:00.208Z,2.20
2023-11-01T09:26:17.028Z,3.60
2023-11-01T09:30:06.665Z,4.60
2023-11-01T09:33:15.450Z,3.70
2023-11-01T09:36:17.616Z,5.00
2023-11-01T09:39:21.945Z,4.00
2023-11-01T09:42:49.456Z,6.70
2023-11-01T09:45:52.221Z,6.60
2023-11-01T09:48:38.813Z,6.40
2023-11-01T09:51:39.985Z,5.50
2023-11-01T09:54:38.498Z,8.90
2023-11-01T09:57:33.114Z,9.10
2023-11-01T10:01:14.629Z,5.20
2023-11-01T10:04:24.944Z,4.00
2023-11-01T10:07:11.861Z,4.60
2023-11-01T10:10:33.666Z,4.10
2023-11-01T10:13:26.429Z,5.50
2023-11-01T10:16:41.739Z,7.70
2023-11-01T10:19:27.331Z,6.20
2023-11-01T10:22:18.934Z,4.90
2023-11-01T10:25:14.712Z,4.50
2023-11-01T10:27:55.644Z,9.40
2023-11-01T10:30:56.422Z,6.10
2023-11-01T10:34:12.987Z,4.80
2023-11-01T10:37:30.879Z,4.20
2023-11-01T10:40:28.801Z,5.90
2023-11-01T10:43:46.406Z,4.50
2023-11-01T10:46:24.472Z,6.70
2023-11-01T10:49:11.097Z,4.70
2023-11-01T10:52:03.897Z,5.00
2023-11-01T10:55:02.982Z,7.60
2023-11-01T10:57:44.726Z,4.30
2023-11-01T11:00:48.927Z,4.30
2023-11-01T11:04:11.468Z,4.50
2023-11-01T11:07:26.690Z,5.60
2023-11-01T11:10:52.314Z,5.80
2023-11-01T11:14:18.355Z,5.80
2023-11-01T11:17:42.048Z,5.20
2023-11-01T11:20:46.642Z,4.30
2023-11-01T11:23:56.433Z,7.50
2023-11-01T11:27:18.286Z,7.50
2023-11-01T11:29:59.422Z,7.30
2023-11-01T11:32:47.378Z,6.10
2023-11-01T11:35:38.432Z,5.30
2023-11-01T11:39:14.519Z,5.40
2023-11-01T11:42:39.732Z,7.50
2023-11-01T11:45:47.097Z,8.10
2023-11-01T11:48:56.276Z,5.60
2023-11-01T11:52:14.964Z,9.90
2023-11-01T11:55:22.288Z,6.30
2023-11-01T11:57:53.642Z,6.10
2023-11-01T12:00:51.936Z,8.30
2023-11-01T12:03:43.440Z,9.00
2023-11-01T12:06:46.335Z,8.70
2023-11-01T12:09:31.804Z,7.40
2023-11-01T12:12:24.358Z,8.10
2023-11-01T12:15:20.737Z,7.20
2023-11-01T12:18:25.884Z,9.10
2023-11-01T12:21:17.560Z,8.70
2023-11-01T12:24:06.001Z,7.30
2023-11-01T12:27:19.517Z,9.20
2023-11-01T12:30:08.476Z,7.80
2023-11-01T12:32:55.194Z,5.30
2023-11-01T12:36:02.343Z,6.50
2023-11-01T12:38:56.502Z,8.10
2023-11-01T12:41:41.600Z,9.70
2023-11-01T12:45:11.062Z,7.60
2023-11-01T12:48:10.673Z,7.50
2023-11-01T12:50:53.876Z,10.30
2023-11-01T12:53:38.716Z,11.10
2023-11-01T12:56:43.512Z,9.40
2023-11-01T12:59:24.162Z,8.50
2023-11-01T13:02:06.886Z,11.00
2023-11-01T13:04:59.107Z,8.10
2023-11-01T13:07:56.810Z,9.60
2023-11-01T13:11:03.161Z,9.60
2023-11-01T13:13:45.099Z,9.30
2023-11-01T13:17:00.331Z,7.90
2023-11-01T13:19:47.750Z,8.10
2023-11-01T13:22:58.761Z,10.20
2023-11-01T13:25:58.034Z,18.60
2023-11-01T13:28:52.362Z,9.50
2023-11-01T13:32:02.703Z,9.10
2023-11-01T13:38:04.112Z,7.40
2023-11-01T13:41:05.119Z,11.50
2023-11-01T13:43:41.712Z,11.80
2023-11-01T13:46:43.934Z,12.20
2023-11-01T13:49:45.898Z,9.90
2023-11-01T13:52:43.976Z,14.90
2023-11-01T13:55:34.238Z,11.20
2023-11-01T13:58:24.364Z,12.20
2023-11-01T14:01:16.207Z,10.80
2023-11-01T14:04:04.402Z,10.40
2023-11-01T14:06:56.420Z,9.30
2023-11-01T14:09:59.605Z,12.50
2023-11-01T14:12:58.279Z,12.50
2023-11-01T14:16:05.215Z,10.80
2023-11-01T14:19:14.126Z,11.50
2023-11-01T14:21:57.776Z,11.00
2023-11-01T14:24:38.327Z,13.70
2023-11-01T14:27:23.578Z,12.60
2023-11-01T14:30:24.229Z,12.50
2023-11-01T14:33:01.779Z,13.70
2023-11-01T14:35:54.142Z,14.70
2023-11-01T14:38:54.771Z,11.90
2023-11-01T14:41:36.859Z,19.00
2023-11-01T14:44:21.173Z,21.00
2023-11-01T14:47:31.920Z,22.50
2023-11-01T14:51:08.650Z,15.30
2023-11-01T14:54:17.781Z,18.40
2023-11-01T14:57:05.732Z,24.50
2023-11-01T15:00:20.543Z,34.60
2023-11-01T15:03:10.605Z,38.20
2023-11-01T15:05:58.385Z,35.70
2023-11-01T15:08:54.844Z,33.90
2023-11-01T15:11:57.683Z,50.40
2023-11-01T15:15:10.733Z,53.00
2023-11-01T15:18:04.086Z,32.80
2023-11-01T15:20:47.160Z,33.30
2023-11-01T15:23:37.981Z,35.20
2023-11-01T15:26:34.509Z,35.40
2023-11-01T15:29:12.155Z,35.40
2023-11-01T15:32:10.106Z,38.90
2023-11-01T15:34:57.798Z,41.60
2023-11-01T15:37:44.442Z,42.00
2023-11-01T15:40:57.184Z,49.40
2023-11-01T15:43:30.688Z,51.60
2023-11-01T15:46:11.567Z,51.80
2023-11-01T15:49:05.859Z,52.80
2023-11-01T15:51:48.453Z,52.90
2023-11-01T15:54:44.810Z,48.60
2023-11-01T15:57:27.031Z,54.50
2023-11-01T16:00:15.121Z,62.90
2023-11-01T16:02:55.542Z,60.00
2023-11-01T16:05:51.209Z,68.30
2023-11-01T16:08:30.401Z,68.50
2023-11-01T16:11:07.125Z,74.90
2023-11-01T16:14:05.674Z,78.70
2023-11-01T16:16:48.093Z,74.20
2023-11-01T16:19:30.138Z,79.70
2023-11-01T16:22:19.863Z,66.70
2023-11-01T16:25:05.375Z,51.40
2023-11-01T16:27:52.394Z,55.00
2023-11-01T16:30:37.070Z,49.90
2023-11-01T16:33:09.873Z,43.70
2023-11-01T16:35:43.933Z,51.70
2023-11-01T16:39:07.582Z,51.60
2023-11-01T16:42:17.493Z,70.10
2023-11-01T16:45:05.262Z,55.40
2023-11-01T16:47:43.549Z,53.00
2023-11-01T16:50:12.446Z,56.90
2023-11-01T16:52:49.403Z,52.80
2023-11-01T16:55:28.553Z,55.70
2023-11-01T16:58:17.308Z,60.00
2023-11-01T17:00:54.360Z,63.90
2023-11-01T17:03:47.685Z,67.70
2023-11-01T17:06:44.999Z,71.00
2023-11-01T17:09:26.613Z,72.60
2023-11-01T17:12:11.132Z,82.90
2023-11-01T17:14:51.589Z,82.00
2023-11-01T17:17:37.698Z,89.20
2023-11-01T17:20:20.633Z,84.50
2023-11-01T17:23:09.875Z,81.40
2023-11-01T17:25:58.046Z,83.00
2023-11-01T17:28:38.517Z,88.10
2023-11-01T17:31:40.642Z,77.70
2023-11-01T17:34:41.138Z,85.30
2023-11-01T17:37:46.906Z,85.60
2023-11-01T17:40:39.548Z,81.30
2023-11-01T17:43:51.938Z,84.10
2023-11-01T17:46:34.543Z,75.40
2023-11-01T17:49:17.717Z,81.70
2023-11-01T17:52:15.349Z,79.50
2023-11-01T17:55:10.381Z,85.00
2023-11-01T17:57:54.294Z,80.50
2023-11-01T18:00:33.391Z,81.80
2023-11-01T18:03:58.389Z,79.30
2023-11-01T18:06:47.251Z,79.60
2023-11-01T18:09:23.718Z,75.20
2023-11-01T18:12:00.519Z,73.50
2023-11-01T18:14:55.122Z,73.20
2023-11-01T18:17:45.612Z,70.20
2023-11-01T18:20:40.417Z,71.30
2023-11-01T18:23:24.272Z,67.10
2023-11-01T18:26:42.517Z,64.80
2023-11-01T18:29:30.329Z,73.40
2023-11-01T18:32:05.388Z,71.30
2023-11-01T18:34:58.601Z,72.90
2023-11-01T18:37:48.843Z,90.30
2023-11-01T18:40:36.788Z,95.20
2023-11-01T18:43:19.083Z,81.10
2023-11-01T18:46:15.575Z,92.90
2023-11-01T18:49:07.519Z,92.80
2023-11-01T18:52:09.497Z,88.70
2023-11-01T18:55:19.831Z,88.20
2023-11-01T18:58:10.298Z,86.80
2023-11-01T19:01:20.002Z,89.50
2023-11-01T19:04:26.895Z,92.20
2023-11-01T19:07:34.658Z,86.90
2023-11-01T19:10:42.621Z,82.90
2023-11-01T19:13:17.378Z,75.40
2023-11-01T19:16:18.277Z,75.30
2023-11-01T19:18:56.436Z,74.10
2023-11-01T19:21:43.926Z,80.20
2023-11-01T19:24:21.076Z,81.20
2023-11-01T19:27:23.923Z,79.90
2023-11-01T19:30:14.572Z,80.60
2023-11-01T19:32:57.823Z,81.70
2023-11-01T19:35:39.552Z,72.80
2023-11-01T19:38:59.557Z,72.40
2023-11-01T19:41:39.262Z,100.90
2023-11-01T19:44:14.213Z,79.00
2023-11-01T19:47:26.761Z,76.00
2023-11-01T19:50:14.701Z,73.30
2023-11-01T19:53:01.586Z,70.70
2023-11-01T19:55:36.959Z,84.70
2023-11-01T19:58:22.892Z,101.10
2023-11-01T20:01:02.959Z,79.50
2023-11-01T20:03:42.237Z,60.30
2023-11-01T20:06:21.856Z,61.40
2023-11-01T20:09:11.762Z,66.60
2023-11-01T20:11:45.680Z,54.20
2023-11-01T20:14:34.990Z,57.20
2023-11-01T20:17:21.583Z,58.60
2023-11-01T20:20:07.548Z,56.60
2023-11-01T20:22:55.037Z,67.60
2023-11-01T20:25:33.285Z,66.10
2023-11-01T20:28:34.377Z,70.10
2023-11-01T20:31:41.054Z,61.00
2023-11-01T20:38:06.977Z,50.60
2023-11-01T20:40:54.162Z,61.50
2023-11-01T20:43:51.826Z,57.30
2023-11-01T20:46:55.436Z,55.80
2023-11-01T20:50:03.203Z,51.70
2023-11-01T20:53:26.075Z,54.50
2023-11-01T20:56:35.733Z,64.00
2023-11-01T20:59:34.811Z,61.90
2023-11-01T21:03:00.500Z,60.70
2023-11-01T21:06:10.473Z,56.80
2023-11-01T21:09:51.075Z,54.70
2023-11-01T21:13:34.268Z,56.50
2023-11-01T21:16:30.670Z,54.20
2023-11-01T21:19:29.706Z,57.90
2023-11-01T21:22:12.401Z,57.50
2023-11-01T21:24:47.085Z,55.20
2023-11-01T21:28:09.441Z,58.80
2023-11-01T21:30:52.443Z,58.50
2023-11-01T21:33:53.354Z,59.50
2023-11-01T21:37:00.354Z,63.50
2023-11-01T21:40:43.486Z,62.30
2023-11-01T21:43:54.216Z,59.80
2023-11-01T21:46:57.735Z,63.10
2023-11-01T21:50:18.364Z,57.40
2023-11-01T21:53:11.021Z,55.30
2023-11-01T21:56:10.966Z,54.90
2023-11-01T21:59:21.417Z,55.40
2023-11-01T22:02:37.799Z,57.40
2023-11-01T22:05:59.759Z,44.90
2023-11-01T22:09:42.383Z,49.50
2023-11-01T22:13:17.700Z,45.90
2023-11-01T22:16:37.612Z,41.70
2023-11-01T22:20:06.179Z,33.30
2023-11-01T22:23:37.897Z,49.40
2023-11-01T22:26:33.735Z,37.40
2023-11-01T22:29:29.423Z,37.60
2023-11-01T22:32:38.253Z,43.30
2023-11-01T22:35:46.733Z,41.00
2023-11-01T22:38:49.758Z,40.50
2023-11-01T22:41:52.875Z,35.80
2023-11-01T22:44:30.293Z,35.60
2023-11-01T22:47:06.950Z,39.30
2023-11-01T22:50:14.486Z,41.50
2023-11-01T22:53:26.901Z,38.10
2023-11-01T22:57:10.568Z,39.80
2023-11-01T23:00:25.899Z,45.00
2023-11-01T23:03:45.643Z,65.20
2023-11-01T23:07:16.418Z,42.10
2023-11-01T23:10:04.791Z,49.60
2023-11-01T23:13:31.844Z,55.30
2023-11-01T23:16:39.901Z,63.70
2023-11-01T23:19:43.588Z,90.20
2023-11-01T23:23:00.376Z,62.20
2023-11-01T23:25:56.259Z,96.00
2023-11-01T23:29:02.783Z,70.20
2023-11-01T23:32:03.015Z,80.10
2023-11-01T23:35:12.384Z,70.10
2023-11-01T23:38:06.796Z,102.40
2023-11-01T23:41:11.019Z,76.00
2023-11-01T23:44:02.058Z,52.70
2023-11-01T23:47:06.565Z,48.90
2023-11-01T23:50:20.198Z,43.10
2023-11-01T23:53:06.140Z,45.30
2023-11-01T23:56:20.953Z,42.60
2023-11-01T23:59:25.218Z,38.90
